Time;durP1;ratioP1;P1;durP2;ratioP2;P2;SDS_P1;SDS_P2;PMS_P1;PMS_P2;Temp;Humidity;BMP_temperature;BMP_pressure;BME280_temperature;BME280_humidity;BME280_pressure;Samples;Min_cycle;Max_cycle;Signal;HPM_P1;HPM_P2
2021/06/06 00:01:07;;;;;;;;;;;18.40;95.90;;;;;;5066811;28;19923;-85
2021/06/06 00:03:35;;;;;;;;;;;18.40;95.40;;;;;;5063268;28;19987;-85
2021/06/06 00:06:03;;;;;;;;;;;18.40;94.90;;;;;;5065270;28;19965;-85
2021/06/06 00:08:29;;;;;;;;;;;18.30;94.60;;;;;;5064503;28;19923;-85
2021/06/06 00:10:58;;;;;;;;;;;18.20;96.10;;;;;;5063314;28;20351;-85
2021/06/06 00:13:24;;;;;;;;;;;18.20;95.50;;;;;;5069602;28;19909;-85
2021/06/06 00:15:50;;;;;;;;;;;18.10;96.50;;;;;;5070589;28;20359;-85
2021/06/06 00:18:15;;;;;;;;;;;18.00;96.30;;;;;;5067415;28;19912;-85
2021/06/06 00:20:41;;;;;;;;;;;18.00;96.10;;;;;;5066194;28;19919;-86
2021/06/06 00:23:07;;;;;;;;;;;17.90;96.20;;;;;;5066583;28;19916;-86
2021/06/06 00:25:33;;;;;;;;;;;17.80;97.50;;;;;;5064695;28;19956;-85
2021/06/06 00:27:58;;;;;;;;;;;17.70;97.20;;;;;;5070970;28;19950;-84
2021/06/06 00:30:27;;;;;;;;;;;17.70;97.20;;;;;;5068122;28;19912;-85
2021/06/06 00:32:53;;;;;;;;;;;17.60;98.40;;;;;;5075514;28;20312;-85
2021/06/06 00:35:19;;;;;;;;;;;17.60;98.50;;;;;;5062490;28;19909;-85
2021/06/06 00:37:44;;;;;;;;;;;17.50;99.70;;;;;;5071235;28;19943;-85
2021/06/06 00:40:11;;;;;;;;;;;17.50;99.40;;;;;;5072434;28;20398;-85
2021/06/06 00:42:37;;;;;;;;;;;17.50;99.80;;;;;;5083080;28;19974;-84
2021/06/06 00:45:05;;;;;;;;;;;17.30;99.90;;;;;;5076323;28;19914;-84
2021/06/06 00:47:30;;;;;;;;;;;17.30;99.90;;;;;;5075117;28;20320;-85
2021/06/06 00:49:57;;;;;;;;;;;17.30;99.90;;;;;;5067471;28;19995;-85
2021/06/06 00:52:24;;;;;;;;;;;17.20;99.90;;;;;;5073277;28;20382;-84
2021/06/06 00:54:50;;;;;;;;;;;17.20;99.90;;;;;;5076422;28;20025;-85
2021/06/06 00:57:21;;;;;;;;;;;17.10;99.90;;;;;;5067597;28;19919;-84
2021/06/06 00:59:49;;;;;;;;;;;17.10;99.90;;;;;;5069371;28;19985;-84
2021/06/06 01:02:15;;;;;;;;;;;17.00;99.90;;;;;;5067672;28;19908;-84
2021/06/06 01:04:41;;;;;;;;;;;17.00;99.90;;;;;;5070585;28;19908;-85
2021/06/06 01:07:06;;;;;;;;;;;17.00;99.90;;;;;;5071365;28;20362;-85
2021/06/06 01:09:32;;;;;;;;;;;16.90;99.90;;;;;;5070401;28;19927;-85
2021/06/06 01:12:04;;;;;;;;;;;16.90;99.90;;;;;;5072169;28;20274;-85
2021/06/06 01:14:29;;;;;;;;;;;16.80;99.90;;;;;;5069700;28;20466;-85
2021/06/06 01:16:57;;;;;;;;;;;16.80;99.90;;;;;;5070616;28;19912;-85
2021/06/06 01:19:49;;;;;;;;;;;16.80;99.90;;;;;;5074479;28;19908;-85
2021/06/06 01:22:33;;;;;;;;;;;16.80;99.90;;;;;;5070971;28;19935;-85
2021/06/06 01:25:13;;;;;;;;;;;16.70;99.90;;;;;;5071111;28;19994;-85
2021/06/06 01:27:41;;;;;;;;;;;16.70;99.90;;;;;;5071886;28;20005;-84
2021/06/06 01:30:09;;;;;;;;;;;16.60;99.90;;;;;;5073407;28;20002;-84
2021/06/06 01:32:47;;;;;;;;;;;16.60;99.90;;;;;;5076212;28;20374;-85
2021/06/06 01:35:14;;;;;;;;;;;16.50;99.90;;;;;;5078161;28;19908;-85
2021/06/06 01:37:42;;;;;;;;;;;16.50;99.90;;;;;;5072330;28;19913;-84
2021/06/06 01:40:12;;;;;;;;;;;16.50;99.90;;;;;;5068587;28;19913;-85
2021/06/06 01:42:42;;;;;;;;;;;16.40;99.90;;;;;;5069575;28;19943;-84
2021/06/06 01:45:14;;;;;;;;;;;16.40;99.90;;;;;;5067248;28;19909;-84
2021/06/06 01:47:41;;;;;;;;;;;16.30;99.90;;;;;;5068095;28;19995;-84
2021/06/06 01:50:11;;;;;;;;;;;16.30;99.90;;;;;;5068268;28;19919;-84
2021/06/06 01:52:38;;;;;;;;;;;16.30;99.90;;;;;;5068049;28;19962;-84
2021/06/06 01:55:09;;;;;;;;;;;16.30;99.90;;;;;;5069154;28;19917;-84
2021/06/06 01:57:36;;;;;;;;;;;16.20;99.90;;;;;;5067506;28;19955;-84
2021/06/06 02:00:05;;;;;;;;;;;16.20;99.90;;;;;;5074419;28;20277;-84
2021/06/06 02:02:30;;;;;;;;;;;16.20;99.90;;;;;;5075019;28;19916;-85
2021/06/06 02:04:57;;;;;;;;;;;16.20;99.90;;;;;;5076316;28;20062;-84
2021/06/06 02:07:25;;;;;;;;;;;16.20;99.90;;;;;;5073264;28;19912;-85
2021/06/06 02:09:57;;;;;;;;;;;16.10;99.90;;;;;;5070151;28;19912;-84
2021/06/06 02:12:25;;;;;;;;;;;16.10;99.90;;;;;;5065780;28;19953;-84
2021/06/06 02:14:51;;;;;;;;;;;16.10;99.90;;;;;;5067232;28;19909;-84
2021/06/06 02:17:22;;;;;;;;;;;16.00;99.90;;;;;;5074079;28;20053;-84
2021/06/06 02:19:47;;;;;;;;;;;16.00;99.90;;;;;;5072769;28;19994;-85
2021/06/06 02:22:14;;;;;;;;;;;16.00;99.90;;;;;;5071619;28;19946;-83
2021/06/06 02:24:40;;;;;;;;;;;16.00;99.90;;;;;;5066845;28;20362;-84
2021/06/06 02:27:10;;;;;;;;;;;15.90;99.90;;;;;;5068464;28;20382;-84
2021/06/06 02:29:43;;;;;;;;;;;15.90;99.90;;;;;;5065419;28;19913;-84
2021/06/06 02:32:19;;;;;;;;;;;15.80;99.90;;;;;;5062799;28;20346;-84
2021/06/06 02:34:45;;;;;;;;;;;15.80;99.90;;;;;;5065151;28;20355;-84
2021/06/06 02:37:16;;;;;;;;;;;15.80;99.90;;;;;;5067889;28;19920;-84
2021/06/06 02:39:45;;;;;;;;;;;15.80;99.90;;;;;;5069895;28;20017;-84
2021/06/06 02:42:13;;;;;;;;;;;15.70;99.90;;;;;;5065664;28;19915;-84
2021/06/06 02:44:43;;;;;;;;;;;15.70;99.90;;;;;;5073204;28;20278;-84
2021/06/06 02:47:11;;;;;;;;;;;15.70;99.90;;;;;;5067462;28;19999;-84
2021/06/06 02:49:39;;;;;;;;;;;15.60;99.90;;;;;;5072202;28;19912;-84
2021/06/06 02:52:11;;;;;;;;;;;15.50;99.90;;;;;;5062136;28;19915;-84
2021/06/06 02:54:38;;;;;;;;;;;15.50;99.90;;;;;;5066937;28;20447;-84
2021/06/06 02:57:07;;;;;;;;;;;15.40;99.90;;;;;;5067304;28;20555;-84
2021/06/06 02:59:41;;;;;;;;;;;15.40;99.90;;;;;;5066464;28;19946;-82
2021/06/06 03:02:08;;;;;;;;;;;15.40;99.90;;;;;;5068898;28;19916;-81
2021/06/06 03:04:35;;;;;;;;;;;15.40;99.90;;;;;;5068481;28;19920;-82
2021/06/06 03:07:08;;;;;;;;;;;15.40;99.90;;;;;;5063862;28;20319;-82
2021/06/06 03:09:34;;;;;;;;;;;15.40;99.90;;;;;;5069205;28;20528;-81
2021/06/06 03:12:02;;;;;;;;;;;15.30;99.90;;;;;;5070651;28;19935;-82
2021/06/06 03:14:30;;;;;;;;;;;15.30;99.90;;;;;;5073006;28;19958;-82
2021/06/06 03:16:58;;;;;;;;;;;15.30;99.90;;;;;;5062334;28;19920;-83
2021/06/06 03:19:25;;;;;;;;;;;15.30;99.90;;;;;;5072708;28;19908;-83
2021/06/06 03:21:51;;;;;;;;;;;15.30;99.90;;;;;;5071437;28;19923;-83
2021/06/06 03:24:43;;;;;;;;;;;15.30;99.90;;;;;;5070332;28;19908;-83
2021/06/06 03:27:09;;;;;;;;;;;15.20;99.90;;;;;;5068085;28;20288;-83
2021/06/06 03:29:44;;;;;;;;;;;15.20;99.90;;;;;;5051704;28;20286;-83
2021/06/06 03:32:10;;;;;;;;;;;15.20;99.90;;;;;;5067724;28;19942;-83
2021/06/06 03:34:36;;;;;;;;;;;15.20;99.90;;;;;;5068111;28;19912;-82
2021/06/06 03:37:02;;;;;;;;;;;15.30;99.90;;;;;;5065539;28;19919;-83
2021/06/06 03:39:28;;;;;;;;;;;15.30;99.90;;;;;;5068539;28;19961;-83
2021/06/06 03:41:55;;;;;;;;;;;15.20;99.90;;;;;;5070841;28;19912;-83
2021/06/06 03:44:20;;;;;;;;;;;15.30;99.90;;;;;;5074079;28;19908;-83
2021/06/06 03:46:46;;;;;;;;;;;15.30;99.90;;;;;;5073035;28;19912;-83
2021/06/06 03:49:11;;;;;;;;;;;15.30;99.90;;;;;;5068437;28;19908;-83
2021/06/06 03:51:37;;;;;;;;;;;15.30;99.90;;;;;;5066414;28;19912;-83
2021/06/06 03:54:04;;;;;;;;;;;15.40;99.90;;;;;;5066512;28;19952;-83
2021/06/06 03:56:29;;;;;;;;;;;15.40;99.90;;;;;;5068973;28;19916;-83
2021/06/06 03:58:54;;;;;;;;;;;15.40;99.90;;;;;;5068424;28;20401;-83
2021/06/06 04:01:20;;;;;;;;;;;15.40;99.90;;;;;;5070713;28;19912;-83
2021/06/06 04:03:56;;;;;;;;;;;15.40;99.90;;;;;;5069361;28;19927;-83
2021/06/06 04:06:23;;;;;;;;;;;15.40;99.90;;;;;;5069274;28;19936;-83
2021/06/06 04:08:48;;;;;;;;;;;15.50;99.90;;;;;;5066427;28;20394;-83
2021/06/06 04:11:14;;;;;;;;;;;15.60;99.90;;;;;;5072939;28;19904;-83
2021/06/06 04:13:39;;;;;;;;;;;15.60;99.90;;;;;;5067493;28;19912;-83
2021/06/06 04:16:05;;;;;;;;;;;15.70;99.90;;;;;;5077520;28;19919;-83
2021/06/06 04:18:31;;;;;;;;;;;15.80;99.90;;;;;;5063150;28;20375;-83
2021/06/06 04:20:58;;;;;;;;;;;15.80;99.90;;;;;;5073888;28;19914;-83
2021/06/06 04:23:23;;;;;;;;;;;15.90;99.90;;;;;;5069483;28;19916;-84
2021/06/06 04:25:50;;;;;;;;;;;16.00;99.90;;;;;;5070756;28;19969;-84
2021/06/06 04:28:16;;;;;;;;;;;16.00;99.90;;;;;;5062309;28;19927;-84
2021/06/06 04:30:42;;;;;;;;;;;16.10;99.90;;;;;;5074229;28;19908;-84
2021/06/06 04:33:08;;;;;;;;;;;16.20;99.90;;;;;;5068654;28;20003;-84
2021/06/06 04:35:37;;;;;;;;;;;16.30;99.90;;;;;;5072575;28;19916;-85
2021/06/06 04:38:03;;;;;;;;;;;16.40;99.90;;;;;;5065253;28;20028;-83
2021/06/06 04:40:29;;;;;;;;;;;16.40;99.90;;;;;;5073048;28;20374;-84
2021/06/06 04:42:54;;;;;;;;;;;16.50;99.90;;;;;;5073045;28;19973;-84
2021/06/06 04:45:20;;;;;;;;;;;16.60;99.90;;;;;;5075807;28;19916;-84
2021/06/06 04:47:45;;;;;;;;;;;16.70;99.90;;;;;;5071635;28;19948;-85
2021/06/06 04:50:13;;;;;;;;;;;16.80;99.90;;;;;;5072696;28;19916;-84
2021/06/06 04:52:38;;;;;;;;;;;16.90;99.90;;;;;;5072517;28;19912;-84
2021/06/06 04:55:06;;;;;;;;;;;17.00;99.90;;;;;;5072544;28;20542;-84
2021/06/06 04:57:31;;;;;;;;;;;17.00;99.90;;;;;;5060413;28;19920;-84
2021/06/06 04:59:57;;;;;;;;;;;17.10;99.90;;;;;;5071149;28;20610;-84
2021/06/06 05:02:22;;;;;;;;;;;17.20;99.90;;;;;;5072726;28;20309;-84
2021/06/06 05:04:48;;;;;;;;;;;17.30;99.90;;;;;;5067506;28;19912;-84
2021/06/06 05:07:13;;;;;;;;;;;17.30;99.90;;;;;;5066524;28;19908;-85
2021/06/06 05:09:39;;;;;;;;;;;17.40;99.90;;;;;;5072447;28;19915;-85
2021/06/06 05:12:06;;;;;;;;;;;17.40;99.90;;;;;;5067611;28;19909;-84
2021/06/06 05:14:31;;;;;;;;;;;17.60;99.90;;;;;;5075648;28;19916;-84
2021/06/06 05:16:57;;;;;;;;;;;17.60;99.90;;;;;;5067347;28;19919;-84
2021/06/06 05:19:22;;;;;;;;;;;17.70;99.90;;;;;;5056101;28;19966;-84
2021/06/06 05:21:48;;;;;;;;;;;17.80;99.90;;;;;;5062967;28;20224;-84
2021/06/06 05:24:14;;;;;;;;;;;17.80;99.90;;;;;;5070033;28;19908;-85
2021/06/06 05:26:39;;;;;;;;;;;17.90;99.90;;;;;;5067295;28;19930;-84
2021/06/06 05:29:05;;;;;;;;;;;18.00;99.90;;;;;;5067529;28;19904;-85
2021/06/06 05:31:31;;;;;;;;;;;18.20;99.90;;;;;;5067949;28;19915;-84
2021/06/06 05:33:57;;;;;;;;;;;18.20;99.90;;;;;;5069083;28;19908;-85
2021/06/06 05:36:22;;;;;;;;;;;18.20;99.90;;;;;;5063600;28;19916;-84
2021/06/06 05:38:48;;;;;;;;;;;18.30;99.90;;;;;;5067681;28;19908;-84
2021/06/06 05:41:13;;;;;;;;;;;18.30;99.90;;;;;;5044445;28;19909;-85
2021/06/06 05:43:39;;;;;;;;;;;18.40;99.90;;;;;;5073052;28;19908;-84
2021/06/06 05:46:06;;;;;;;;;;;18.50;99.90;;;;;;5073239;28;19908;-84
2021/06/06 05:48:31;;;;;;;;;;;18.50;99.70;;;;;;5064671;28;19931;-85
2021/06/06 05:50:58;;;;;;;;;;;18.60;99.60;;;;;;5070206;28;20358;-85
2021/06/06 05:53:24;;;;;;;;;;;18.70;99.90;;;;;;5069951;28;19941;-85
2021/06/06 05:55:49;;;;;;;;;;;18.70;99.90;;;;;;5066685;28;19961;-85
2021/06/06 05:58:17;;;;;;;;;;;18.80;99.90;;;;;;5070995;28;19970;-85
2021/06/06 06:00:44;;;;;;;;;;;18.80;99.90;;;;;;5067134;28;20367;-85
2021/06/06 06:03:10;;;;;;;;;;;18.90;99.90;;;;;;5055407;28;19954;-85
2021/06/06 06:05:36;;;;;;;;;;;19.00;99.90;;;;;;5068814;28;19955;-85
2021/06/06 06:08:15;;;;;;;;;;;19.00;99.90;;;;;;5067529;28;19912;-85
2021/06/06 06:10:41;;;;;;;;;;;19.10;99.90;;;;;;5069528;28;19912;-85
2021/06/06 06:13:07;;;;;;;;;;;19.20;99.90;;;;;;5062877;28;19908;-85
2021/06/06 06:15:33;;;;;;;;;;;19.20;99.30;;;;;;5068715;28;20337;-85
2021/06/06 06:17:59;;;;;;;;;;;19.30;99.90;;;;;;5066884;28;20036;-85
2021/06/06 06:20:24;;;;;;;;;;;19.40;99.00;;;;;;5066712;28;20003;-85
2021/06/06 06:22:50;;;;;;;;;;;19.40;99.90;;;;;;5073785;28;19909;-85
2021/06/06 06:25:17;;;;;;;;;;;19.50;99.90;;;;;;5061743;28;19912;-85
2021/06/06 06:27:42;;;;;;;;;;;19.50;99.00;;;;;;5069545;28;19965;-85
2021/06/06 06:30:10;;;;;;;;;;;19.60;98.70;;;;;;5066784;28;19908;-85
2021/06/06 06:32:36;;;;;;;;;;;19.70;99.00;;;;;;5062889;28;19916;-85
2021/06/06 06:35:01;;;;;;;;;;;19.80;98.70;;;;;;5071358;28;19908;-84
2021/06/06 06:37:27;;;;;;;;;;;19.90;97.90;;;;;;5064485;28;20001;-84
2021/06/06 06:39:52;;;;;;;;;;;20.00;97.30;;;;;;5066860;28;19998;-85
2021/06/06 06:42:18;;;;;;;;;;;20.10;97.20;;;;;;5069435;28;20046;-85
2021/06/06 06:44:43;;;;;;;;;;;20.20;97.50;;;;;;5068228;28;19916;-85
2021/06/06 06:47:09;;;;;;;;;;;20.20;97.70;;;;;;5069511;28;19954;-85
2021/06/06 06:49:34;;;;;;;;;;;20.30;96.90;;;;;;5062998;28;19938;-86
2021/06/06 06:52:00;;;;;;;;;;;20.30;96.80;;;;;;5066890;28;19908;-85
2021/06/06 06:54:25;;;;;;;;;;;20.40;95.90;;;;;;5046903;28;19916;-85
2021/06/06 06:56:51;;;;;;;;;;;20.50;95.30;;;;;;5067746;28;19916;-85
2021/06/06 06:59:16;;;;;;;;;;;20.70;94.50;;;;;;5067530;28;19999;-86
2021/06/06 07:01:42;;;;;;;;;;;20.80;94.20;;;;;;5068208;28;20003;-86
2021/06/06 07:04:07;;;;;;;;;;;20.80;93.90;;;;;;5067968;28;20339;-85
2021/06/06 07:06:33;;;;;;;;;;;20.90;93.60;;;;;;5065129;28;19908;-86
2021/06/06 07:08:58;;;;;;;;;;;20.90;93.30;;;;;;5069452;28;20310;-86
2021/06/06 07:11:24;;;;;;;;;;;20.90;92.60;;;;;;5070652;28;19912;-85
2021/06/06 07:13:50;;;;;;;;;;;20.90;92.90;;;;;;5060643;28;19995;-85
2021/06/06 07:16:16;;;;;;;;;;;21.00;92.70;;;;;;5069883;28;20003;-85
2021/06/06 07:18:42;;;;;;;;;;;21.00;92.70;;;;;;5068522;28;20341;-85
2021/06/06 07:21:13;;;;;;;;;;;21.10;93.00;;;;;;5064882;28;20013;-85
2021/06/06 07:23:39;;;;;;;;;;;21.10;93.50;;;;;;5065691;28;19927;-85
2021/06/06 07:26:08;;;;;;;;;;;21.20;90.90;;;;;;5067333;28;19908;-86
2021/06/06 07:28:34;;;;;;;;;;;21.30;90.60;;;;;;5068080;28;19915;-85
2021/06/06 07:31:00;;;;;;;;;;;21.40;88.30;;;;;;5066712;28;19908;-84
2021/06/06 07:33:28;;;;;;;;;;;21.50;89.30;;;;;;5064756;28;19908;-85
2021/06/06 07:35:54;;;;;;;;;;;21.60;88.20;;;;;;5070958;28;19908;-86
2021/06/06 07:38:20;;;;;;;;;;;21.70;84.90;;;;;;5065556;28;19912;-86
2021/06/06 07:40:46;;;;;;;;;;;21.80;84.50;;;;;;5067265;28;19915;-86
2021/06/06 07:43:12;;;;;;;;;;;21.90;83.60;;;;;;5069383;28;19908;-84
2021/06/06 07:45:41;;;;;;;;;;;22.00;79.10;;;;;;5064931;28;19912;-86
2021/06/06 07:48:07;;;;;;;;;;;22.20;78.10;;;;;;5065575;28;19912;-86
2021/06/06 07:50:37;;;;;;;;;;;22.30;79.00;;;;;;5066668;28;19917;-86
2021/06/06 07:53:03;;;;;;;;;;;22.30;81.60;;;;;;5074719;28;19998;-84
2021/06/06 07:55:28;;;;;;;;;;;22.30;77.50;;;;;;5070382;28;19963;-86
2021/06/06 07:57:54;;;;;;;;;;;22.30;78.60;;;;;;5067992;28;19912;-86
2021/06/06 08:00:21;;;;;;;;;;;22.30;78.30;;;;;;5066797;28;20032;-87
2021/06/06 08:02:52;;;;;;;;;;;22.40;78.00;;;;;;5072043;28;21429;-85
2021/06/06 08:05:21;;;;;;;;;;;22.40;77.30;;;;;;5059623;28;19999;-85
2021/06/06 08:07:46;;;;;;;;;;;22.40;75.90;;;;;;5067524;28;19909;-86
2021/06/06 08:10:13;;;;;;;;;;;22.50;76.50;;;;;;5072386;28;19998;-82
2021/06/06 08:12:39;;;;;;;;;;;22.60;73.20;;;;;;5065446;28;19909;-81
2021/06/06 08:15:06;;;;;;;;;;;22.70;75.00;;;;;;5068221;28;20572;-85
2021/06/06 08:17:50;;;;;;;;;;;22.70;75.60;;;;;;5068337;28;19912;-85
2021/06/06 08:20:20;;;;;;;;;;;22.80;73.20;;;;;;5068315;28;19908;-85
2021/06/06 08:22:46;;;;;;;;;;;22.80;73.00;;;;;;5071552;28;19912;-87
2021/06/06 08:25:12;;;;;;;;;;;22.80;72.80;;;;;;5066995;28;20274;-84
2021/06/06 08:27:38;;;;;;;;;;;22.90;72.70;;;;;;5065920;28;19952;-84
2021/06/06 08:30:08;;;;;;;;;;;23.00;71.90;;;;;;5075261;28;19919;-84
2021/06/06 08:32:33;;;;;;;;;;;23.00;70.90;;;;;;5061167;28;20614;-82
2021/06/06 08:34:59;;;;;;;;;;;23.20;69.40;;;;;;5060217;28;19916;-83
2021/06/06 08:37:24;;;;;;;;;;;23.40;66.50;;;;;;5074177;28;19912;-77
2021/06/06 08:39:50;;;;;;;;;;;23.40;63.80;;;;;;5073698;28;19923;-77
2021/06/06 08:42:19;;;;;;;;;;;23.50;66.20;;;;;;5064596;28;19923;-76
2021/06/06 08:44:55;;;;;;;;;;;23.50;66.40;;;;;;5069520;28;20384;-77
2021/06/06 08:47:24;;;;;;;;;;;23.60;61.70;;;;;;5065186;28;20367;-77
2021/06/06 08:49:56;;;;;;;;;;;23.80;58.00;;;;;;5070159;28;19995;-76
2021/06/06 08:52:24;;;;;;;;;;;24.00;58.60;;;;;;5060944;28;19920;-76
2021/06/06 08:54:53;;;;;;;;;;;24.00;59.00;;;;;;5057421;28;19916;-77
2021/06/06 08:57:31;;;;;;;;;;;24.10;58.30;;;;;;5067837;28;20478;-76
2021/06/06 08:59:58;;;;;;;;;;;24.20;57.50;;;;;;5060522;28;19985;-77
2021/06/06 09:02:26;;;;;;;;;;;24.30;56.80;;;;;;5065750;28;19999;-77
2021/06/06 09:04:52;;;;;;;;;;;24.30;56.10;;;;;;5071839;28;19912;-80
2021/06/06 09:07:20;;;;;;;;;;;24.40;56.00;;;;;;5068193;28;19908;-75
2021/06/06 09:09:48;;;;;;;;;;;24.30;56.70;;;;;;5063953;28;19919;-77
2021/06/06 09:12:18;;;;;;;;;;;24.30;55.30;;;;;;5058078;28;19912;-78
2021/06/06 09:14:44;;;;;;;;;;;24.30;53.90;;;;;;5065702;28;19912;-79
2021/06/06 09:17:11;;;;;;;;;;;24.20;54.30;;;;;;5070817;28;20364;-76
2021/06/06 09:19:39;;;;;;;;;;;24.10;53.70;;;;;;5062535;28;19909;-74
2021/06/06 09:22:05;;;;;;;;;;;24.20;55.20;;;;;;5056062;28;19936;-91
2021/06/06 09:24:38;;;;;;;;;;;24.30;55.40;;;;;;5066333;28;19955;-79
2021/06/06 09:27:09;;;;;;;;;;;24.20;55.60;;;;;;5065425;28;20307;-76
2021/06/06 09:29:35;;;;;;;;;;;24.20;54.50;;;;;;5060088;28;19908;-76
2021/06/06 09:32:08;;;;;;;;;;;24.10;53.20;;;;;;5070965;28;20003;-75
2021/06/06 09:34:34;;;;;;;;;;;24.20;56.50;;;;;;5064583;28;20381;-75
2021/06/06 09:37:07;;;;;;;;;;;24.30;58.50;;;;;;5064924;28;19924;-74
2021/06/06 09:39:41;;;;;;;;;;;24.30;55.20;;;;;;5065716;28;19980;-75
2021/06/06 09:42:19;;;;;;;;;;;24.60;56.80;;;;;;5070576;28;19916;-75
2021/06/06 09:44:44;;;;;;;;;;;25.00;50.80;;;;;;5065936;28;20366;-76
2021/06/06 09:47:11;;;;;;;;;;;25.40;48.80;;;;;;5080344;28;19908;-76
2021/06/06 09:49:38;;;;;;;;;;;25.60;46.80;;;;;;5070084;28;19923;-74
2021/06/06 09:52:10;;;;;;;;;;;25.60;50.80;;;;;;5070736;28;19915;-76
2021/06/06 09:54:35;;;;;;;;;;;25.80;51.40;;;;;;5068039;28;20019;-76
2021/06/06 09:57:03;;;;;;;;;;;26.10;53.50;;;;;;5068311;28;20026;-76
2021/06/06 09:59:33;;;;;;;;;;;26.20;49.40;;;;;;5066218;28;19943;-76
2021/06/06 10:02:02;;;;;;;;;;;26.10;49.60;;;;;;5065890;28;19908;-76
2021/06/06 10:04:30;;;;;;;;;;;26.10;51.00;;;;;;5065840;28;19994;-75
2021/06/06 10:07:14;;;;;;;;;;;26.10;51.90;;;;;;5068132;28;19908;-77
2021/06/06 10:10:00;;;;;;;;;;;26.10;51.10;;;;;;5059961;28;19965;-77
2021/06/06 10:12:32;;;;;;;;;;;26.30;50.70;;;;;;5065798;28;20008;-76
2021/06/06 10:14:57;;;;;;;;;;;26.50;51.50;;;;;;5059453;28;19915;-75
2021/06/06 10:17:32;;;;;;;;;;;26.40;52.00;;;;;;5068742;28;19924;-75
2021/06/06 10:20:07;;;;;;;;;;;26.40;51.90;;;;;;5045223;28;19909;-77
2021/06/06 10:22:35;;;;;;;;;;;26.50;48.40;;;;;;5065214;28;19931;-76
2021/06/06 10:25:08;;;;;;;;;;;26.70;46.70;;;;;;5065340;28;19927;-76
2021/06/06 10:27:42;;;;;;;;;;;26.70;46.10;;;;;;5064311;28;20393;-77
2021/06/06 10:30:07;;;;;;;;;;;26.80;49.20;;;;;;5065642;28;20407;-76
2021/06/06 10:32:36;;;;;;;;;;;27.00;49.50;;;;;;5065328;28;19908;-76
2021/06/06 10:35:12;;;;;;;;;;;27.10;49.20;;;;;;5065040;28;19916;-76
2021/06/06 10:37:38;;;;;;;;;;;27.10;49.50;;;;;;5066473;28;19912;-77
2021/06/06 10:40:06;;;;;;;;;;;27.20;47.90;;;;;;5066842;28;19912;-75
2021/06/06 10:42:42;;;;;;;;;;;27.20;48.90;;;;;;5068669;28;20348;-75
2021/06/06 10:45:21;;;;;;;;;;;27.30;48.70;;;;;;5067374;28;19999;-76
2021/06/06 10:47:54;;;;;;;;;;;27.40;47.80;;;;;;5065223;28;19995;-76
2021/06/06 10:50:23;;;;;;;;;;;27.50;42.60;;;;;;5067271;28;19915;-77
2021/06/06 10:52:49;;;;;;;;;;;27.60;45.10;;;;;;5066856;28;19921;-76
2021/06/06 10:55:27;;;;;;;;;;;27.70;46.90;;;;;;5063187;28;19924;-75
2021/06/06 10:57:53;;;;;;;;;;;27.70;47.80;;;;;;5065475;28;19912;-76
2021/06/06 11:00:31;;;;;;;;;;;27.40;49.60;;;;;;5068171;28;19920;-76
2021/06/06 11:02:59;;;;;;;;;;;27.00;49.10;;;;;;5054619;28;19948;-77
2021/06/06 11:05:33;;;;;;;;;;;26.60;50.40;;;;;;5069087;28;20355;-75
2021/06/06 11:07:59;;;;;;;;;;;26.30;55.20;;;;;;5066082;28;19916;-76
2021/06/06 11:10:24;;;;;;;;;;;26.00;52.20;;;;;;5067394;28;19970;-76
2021/06/06 11:12:51;;;;;;;;;;;26.00;53.80;;;;;;5063476;28;20283;-76
2021/06/06 11:15:16;;;;;;;;;;;25.90;53.50;;;;;;5067747;28;19920;-77
2021/06/06 11:17:42;;;;;;;;;;;26.30;51.50;;;;;;5065431;28;20336;-75
2021/06/06 11:20:09;;;;;;;;;;;27.00;53.10;;;;;;5067764;28;19909;-74
2021/06/06 11:22:36;;;;;;;;;;;27.80;46.00;;;;;;5064362;28;20294;-74
2021/06/06 11:25:02;;;;;;;;;;;28.60;47.00;;;;;;5065939;28;19945;-74
2021/06/06 11:27:30;;;;;;;;;;;29.30;46.90;;;;;;5065790;28;19967;-76
2021/06/06 11:30:02;;;;;;;;;;;29.90;44.30;;;;;;5066765;28;20053;-75
2021/06/06 11:32:46;;;;;;;;;;;30.50;41.30;;;;;;5065557;28;19909;-74
2021/06/06 11:35:20;;;;;;;;;;;31.10;43.10;;;;;;5065487;28;19966;-74
2021/06/06 11:37:47;;;;;;;;;;;31.70;39.70;;;;;;5068571;28;20363;-75
2021/06/06 11:40:18;;;;;;;;;;;32.20;38.10;;;;;;5067663;28;20396;-74
2021/06/06 11:42:44;;;;;;;;;;;32.50;40.10;;;;;;5067396;28;20392;-74
2021/06/06 11:45:23;;;;;;;;;;;32.80;38.60;;;;;;5064167;28;19908;-74
2021/06/06 11:47:52;;;;;;;;;;;33.20;33.30;;;;;;5066818;28;19916;-75
2021/06/06 11:50:21;;;;;;;;;;;33.60;35.40;;;;;;5068019;28;20378;-76
2021/06/06 11:52:50;;;;;;;;;;;33.60;33.70;;;;;;5059304;28;19935;-74
2021/06/06 11:55:18;;;;;;;;;;;33.30;36.00;;;;;;5061998;28;19923;-74
2021/06/06 11:57:50;;;;;;;;;;;33.20;36.50;;;;;;5060271;28;19921;-74
2021/06/06 12:00:23;;;;;;;;;;;32.50;36.70;;;;;;5062050;28;20451;-74
2021/06/06 12:02:49;;;;;;;;;;;31.60;38.10;;;;;;5062030;28;20688;-74
2021/06/06 12:05:16;;;;;;;;;;;31.60;39.70;;;;;;5059724;28;19916;-74
2021/06/06 12:07:44;;;;;;;;;;;32.20;39.20;;;;;;5056230;28;19944;-74
2021/06/06 12:10:42;;;;;;;;;;;33.30;40.50;;;;;;5059682;28;19909;-74
2021/06/06 12:13:08;;;;;;;;;;;34.30;34.20;;;;;;5027403;28;20351;-75
2021/06/06 12:15:35;;;;;;;;;;;35.10;34.00;;;;;;5061998;28;20011;-74
2021/06/06 12:18:03;;;;;;;;;;;35.90;31.80;;;;;;5060672;28;20416;-74
2021/06/06 12:20:29;;;;;;;;;;;35.40;32.30;;;;;;5060640;28;20382;-75
2021/06/06 12:23:03;;;;;;;;;;;34.50;33.20;;;;;;5060644;28;19955;-76
2021/06/06 12:25:30;;;;;;;;;;;33.60;35.30;;;;;;5057501;28;19920;-69
2021/06/06 12:28:03;;;;;;;;;;;32.70;36.90;;;;;;5060184;28;19916;-71
2021/06/06 12:30:34;;;;;;;;;;;32.50;35.50;;;;;;5061758;28;19909;-71
2021/06/06 12:33:05;;;;;;;;;;;33.40;35.70;;;;;;5053215;28;19909;-71
2021/06/06 12:35:37;;;;;;;;;;;33.00;31.40;;;;;;5064495;28;19916;-71
2021/06/06 12:38:03;;;;;;;;;;;32.50;35.80;;;;;;5069597;28;19920;-71
2021/06/06 12:40:33;;;;;;;;;;;31.70;36.30;;;;;;5066075;28;20305;-71
2021/06/06 12:42:59;;;;;;;;;;;31.10;35.30;;;;;;5066223;28;20003;-71
2021/06/06 12:45:27;;;;;;;;;;;30.60;36.70;;;;;;5064083;28;19908;-70
2021/06/06 12:48:03;;;;;;;;;;;30.10;37.40;;;;;;5062737;28;20010;-70
2021/06/06 12:50:29;;;;;;;;;;;30.00;40.20;;;;;;5069722;28;19917;-71
2021/06/06 12:52:59;;;;;;;;;;;29.80;39.00;;;;;;5063385;28;19954;-70
2021/06/06 12:55:24;;;;;;;;;;;29.60;41.30;;;;;;5065070;28;20445;-70
2021/06/06 12:58:22;;;;;;;;;;;29.50;39.30;;;;;;5067052;28;20045;-70
2021/06/06 13:01:06;;;;;;;;;;;29.70;41.40;;;;;;5032390;28;20007;-70
2021/06/06 13:03:45;;;;;;;;;;;31.40;38.70;;;;;;5064061;28;19916;-70
2021/06/06 13:06:13;;;;;;;;;;;32.30;34.80;;;;;;5066080;28;19908;-70
2021/06/06 13:08:39;;;;;;;;;;;32.60;34.20;;;;;;5063417;28;20047;-70
2021/06/06 13:11:10;;;;;;;;;;;32.50;34.00;;;;;;5066022;28;20470;-70
2021/06/06 13:13:40;;;;;;;;;;;32.60;33.40;;;;;;5065524;28;19933;-71
2021/06/06 13:16:12;;;;;;;;;;;32.60;32.20;;;;;;5064657;28;19908;-70
2021/06/06 13:18:37;;;;;;;;;;;33.40;31.30;;;;;;5062561;28;19981;-70
2021/06/06 13:21:11;;;;;;;;;;;34.40;31.30;;;;;;5065369;28;19908;-71
2021/06/06 13:23:41;;;;;;;;;;;34.70;32.70;;;;;;5065804;28;20372;-71
2021/06/06 13:26:08;;;;;;;;;;;34.60;33.90;;;;;;5064568;28;19916;-70
2021/06/06 13:28:33;;;;;;;;;;;34.20;32.70;;;;;;5064413;28;19908;-70
2021/06/06 13:31:06;;;;;;;;;;;33.90;33.90;;;;;;5066786;28;19919;-70
2021/06/06 13:33:32;;;;;;;;;;;34.20;30.50;;;;;;5067610;28;19934;-70
2021/06/06 13:35:58;;;;;;;;;;;35.00;33.10;;;;;;5062864;28;19917;-70
2021/06/06 13:38:24;;;;;;;;;;;35.90;33.70;;;;;;5065762;28;19916;-70
2021/06/06 13:40:51;;;;;;;;;;;36.30;33.60;;;;;;5066327;28;19912;-70
2021/06/06 13:43:17;;;;;;;;;;;36.60;33.10;;;;;;5067181;28;20007;-71
2021/06/06 13:45:43;;;;;;;;;;;37.20;31.80;;;;;;5060585;28;20662;-71
2021/06/06 13:48:10;;;;;;;;;;;37.10;31.20;;;;;;5062501;28;19924;-72
2021/06/06 13:50:41;;;;;;;;;;;36.60;31.80;;;;;;5061516;28;20045;-72
2021/06/06 13:53:12;;;;;;;;;;;35.80;33.60;;;;;;5061117;28;19935;-71
2021/06/06 13:55:37;;;;;;;;;;;34.70;34.40;;;;;;5067489;28;20333;-72
2021/06/06 13:58:03;;;;;;;;;;;34.50;35.60;;;;;;5060661;28;19912;-75
2021/06/06 14:00:29;;;;;;;;;;;34.00;36.10;;;;;;5065528;28;20335;-73
2021/06/06 14:02:59;;;;;;;;;;;33.50;36.80;;;;;;5065264;28;19909;-76
2021/06/06 14:05:24;;;;;;;;;;;33.40;37.30;;;;;;5056776;28;19958;-74
2021/06/06 14:07:50;;;;;;;;;;;33.00;37.50;;;;;;5054695;28;19912;-77
2021/06/06 14:10:17;;;;;;;;;;;33.20;38.70;;;;;;5070367;28;19908;-77
2021/06/06 14:12:43;;;;;;;;;;;33.50;37.20;;;;;;5065025;28;19966;-74
2021/06/06 14:15:10;;;;;;;;;;;33.30;37.20;;;;;;5058971;28;19909;-74
2021/06/06 14:17:35;;;;;;;;;;;33.20;37.40;;;;;;5065940;28;20130;-74
2021/06/06 14:20:01;;;;;;;;;;;33.80;36.50;;;;;;5068142;28;20043;-74
2021/06/06 14:22:28;;;;;;;;;;;34.20;36.40;;;;;;5070624;28;19948;-74